createdAt,value
2022-10-27T00:00:36.936Z,17.02
2022-10-27T00:03:03.865Z,16.99
2022-10-27T00:05:30.723Z,16.96
2022-10-27T00:07:57.597Z,16.94
2022-10-27T00:10:24.399Z,16.86
2022-10-27T00:12:51.533Z,16.74
2022-10-27T00:15:18.632Z,16.87
2022-10-27T00:17:45.430Z,16.87
2022-10-27T00:20:12.358Z,16.83
2022-10-27T00:22:39.244Z,16.83
2022-10-27T00:25:06.367Z,16.75
2022-10-27T00:27:33.224Z,16.79
2022-10-27T00:30:00.081Z,16.77
2022-10-27T00:32:26.962Z,16.64
2022-10-27T00:34:53.870Z,16.72
2022-10-27T00:37:20.734Z,16.69
2022-10-27T00:39:47.576Z,16.69
2022-10-27T00:42:14.595Z,16.66
2022-10-27T00:44:45.875Z,16.64
2022-10-27T00:47:26.612Z,16.63
2022-10-27T00:50:22.625Z,16.61
2022-10-27T00:52:52.531Z,16.55
2022-10-27T00:55:31.321Z,16.54
2022-10-27T00:57:58.367Z,16.35
2022-10-27T01:00:25.284Z,16.48
2022-10-27T01:02:52.562Z,16.47
2022-10-27T01:05:23.761Z,16.44
2022-10-27T01:07:52.054Z,16.43
2022-10-27T01:10:18.975Z,16.37
2022-10-27T01:12:45.891Z,16.37
2022-10-27T01:15:12.731Z,16.35
2022-10-27T01:17:58.870Z,16.33
2022-10-27T01:20:40.584Z,16.32
2022-10-27T01:23:22.364Z,16.28
2022-10-27T01:26:10.774Z,16.26
2022-10-27T01:28:50.887Z,16.24
2022-10-27T01:31:22.629Z,16.19
2022-10-27T01:34:13.595Z,16.14
2022-10-27T01:36:51.305Z,16.10
2022-10-27T01:39:21.867Z,16.09
2022-10-27T01:41:54.734Z,16.05
2022-10-27T01:44:24.173Z,16.04
2022-10-27T01:46:51.473Z,16.04
2022-10-27T01:49:18.323Z,16.01
2022-10-27T01:51:45.169Z,16.01
2022-10-27T01:54:11.983Z,15.98
2022-10-27T01:56:42.729Z,15.98
2022-10-27T01:59:43.101Z,15.96
2022-10-27T02:02:42.832Z,15.90
2022-10-27T02:05:15.148Z,15.88
2022-10-27T02:08:06.441Z,15.96
2022-10-27T02:10:45.223Z,16.07
2022-10-27T02:13:12.298Z,16.20
2022-10-27T02:15:41.134Z,16.31
2022-10-27T02:18:13.365Z,16.34
2022-10-27T02:20:41.799Z,16.37
2022-10-27T02:23:09.395Z,16.45
2022-10-27T02:25:44.514Z,16.56
2022-10-27T02:28:11.371Z,16.65
2022-10-27T02:30:38.250Z,16.71
2022-10-27T02:33:05.212Z,16.74
2022-10-27T02:35:32.082Z,16.83
2022-10-27T02:37:59.458Z,16.94
2022-10-27T02:40:26.553Z,17.03
2022-10-27T02:42:53.669Z,16.94
2022-10-27T02:45:21.421Z,17.05
2022-10-27T02:47:48.674Z,17.15
2022-10-27T02:50:15.634Z,17.23
2022-10-27T02:52:44.062Z,17.31
2022-10-27T02:55:11.009Z,17.34
2022-10-27T02:57:37.867Z,17.35
2022-10-27T03:00:05.680Z,17.39
2022-10-27T03:02:32.529Z,17.48
2022-10-27T03:04:59.409Z,17.57
2022-10-27T03:07:26.428Z,17.51
2022-10-27T03:09:53.310Z,17.62
2022-10-27T03:12:20.112Z,17.64
2022-10-27T03:14:46.946Z,17.70
2022-10-27T03:17:13.776Z,17.78
2022-10-27T03:19:40.632Z,17.70
2022-10-27T03:22:07.457Z,17.86
2022-10-27T03:24:34.317Z,17.86
2022-10-27T03:27:01.124Z,17.93
2022-10-27T03:29:27.967Z,18.02
2022-10-27T03:31:54.831Z,18.10
2022-10-27T03:34:21.679Z,18.13
2022-10-27T03:36:48.501Z,18.14
2022-10-27T03:39:15.550Z,18.15
2022-10-27T03:41:42.459Z,18.26
2022-10-27T03:44:09.381Z,18.36
2022-10-27T03:46:36.295Z,18.38
2022-10-27T03:49:03.317Z,18.40
2022-10-27T03:51:30.217Z,18.41
2022-10-27T03:53:58.003Z,18.36
2022-10-27T03:56:24.918Z,18.56
2022-10-27T03:58:51.884Z,18.69
2022-10-27T04:01:18.837Z,18.88
2022-10-27T04:03:48.283Z,19.04
2022-10-27T04:06:15.416Z,19.18
2022-10-27T04:08:42.545Z,19.31
2022-10-27T04:11:09.576Z,19.27
2022-10-27T04:13:36.570Z,19.45
2022-10-27T04:16:03.704Z,19.71
2022-10-27T04:18:30.644Z,19.73
2022-10-27T04:21:04.381Z,20.04
2022-10-27T04:23:31.492Z,20.23
2022-10-27T04:25:58.749Z,20.19
2022-10-27T04:28:25.877Z,20.46
2022-10-27T04:30:52.930Z,20.63
2022-10-27T04:33:20.557Z,20.80
2022-10-27T04:35:48.960Z,20.96
2022-10-27T04:38:15.919Z,21.19
2022-10-27T04:40:42.993Z,21.33
2022-10-27T04:43:10.091Z,21.45
2022-10-27T04:45:36.993Z,21.60
2022-10-27T04:48:04.201Z,21.74
2022-10-27T04:50:31.181Z,21.83
2022-10-27T04:53:02.196Z,21.96
2022-10-27T04:55:30.826Z,22.11
2022-10-27T04:57:58.059Z,22.24
2022-10-27T05:00:25.212Z,22.37
2022-10-27T05:02:58.922Z,22.36
2022-10-27T05:05:27.866Z,22.57
2022-10-27T05:07:55.684Z,22.69
2022-10-27T05:10:22.833Z,22.71
2022-10-27T05:12:49.989Z,22.78
2022-10-27T05:15:17.890Z,22.88
2022-10-27T05:17:44.775Z,22.96
2022-10-27T05:20:12.130Z,22.94
2022-10-27T05:22:39.707Z,23.02
2022-10-27T05:25:10.130Z,23.21
2022-10-27T05:27:37.446Z,23.31
2022-10-27T05:30:05.288Z,23.31
2022-10-27T05:32:32.493Z,23.33
2022-10-27T05:34:59.518Z,23.54
2022-10-27T05:37:26.447Z,23.61
2022-10-27T05:39:53.333Z,23.67
2022-10-27T05:42:20.431Z,23.74
2022-10-27T05:44:47.441Z,23.80
2022-10-27T05:47:14.496Z,23.86
2022-10-27T05:49:41.476Z,23.92
2022-10-27T05:52:08.481Z,23.96
2022-10-27T05:54:35.609Z,24.04
2022-10-27T05:57:02.619Z,24.09
2022-10-27T05:59:29.570Z,24.13
2022-10-27T06:01:56.873Z,24.05
2022-10-27T06:04:24.115Z,24.42
2022-10-27T06:06:51.148Z,24.52
2022-10-27T06:09:18.217Z,24.53
2022-10-27T06:11:45.262Z,24.63
2022-10-27T06:14:12.359Z,24.72
2022-10-27T06:16:39.340Z,24.78
2022-10-27T06:19:06.297Z,24.84
2022-10-27T06:21:33.321Z,24.85
2022-10-27T06:24:00.677Z,24.95
2022-10-27T06:26:27.742Z,25.00
2022-10-27T06:28:54.969Z,25.07
2022-10-27T06:31:21.996Z,25.14
2022-10-27T06:33:49.008Z,25.20
2022-10-27T06:36:16.141Z,25.29
2022-10-27T06:38:44.434Z,25.28
2022-10-27T06:41:13.305Z,25.27
2022-10-27T06:43:42.420Z,25.29
2022-10-27T06:46:09.308Z,25.27
2022-10-27T06:48:36.279Z,25.35
2022-10-27T06:51:03.302Z,25.38
2022-10-27T06:53:30.227Z,25.52
2022-10-27T06:55:57.454Z,25.35
2022-10-27T06:58:24.499Z,25.26
2022-10-27T07:00:51.601Z,25.31
2022-10-27T07:03:18.531Z,25.29
2022-10-27T07:05:45.551Z,25.31
2022-10-27T07:08:12.725Z,25.33
2022-10-27T07:10:39.870Z,25.38
2022-10-27T07:13:06.908Z,25.45
2022-10-27T07:15:34.157Z,25.51
2022-10-27T07:18:03.056Z,25.52
2022-10-27T07:20:30.640Z,25.51
2022-10-27T07:22:58.143Z,25.50
2022-10-27T07:25:26.099Z,25.51
2022-10-27T07:27:56.778Z,25.55
2022-10-27T07:30:26.292Z,25.60
2022-10-27T07:32:53.238Z,25.66
2022-10-27T07:35:20.259Z,25.72
2022-10-27T07:37:47.569Z,25.71
2022-10-27T07:40:15.603Z,25.70
2022-10-27T07:42:52.937Z,25.81
2022-10-27T07:45:21.323Z,25.91
2022-10-27T07:47:56.412Z,25.95
2022-10-27T07:50:29.629Z,26.07
2022-10-27T07:52:56.917Z,26.23
2022-10-27T07:55:25.124Z,25.82
2022-10-27T07:58:01.750Z,25.56
2022-10-27T08:00:29.034Z,25.62
2022-10-27T08:02:56.108Z,25.70
2022-10-27T08:05:23.157Z,25.77
2022-10-27T08:07:50.391Z,25.74
2022-10-27T08:10:17.492Z,25.79
2022-10-27T08:12:45.094Z,25.66
2022-10-27T08:15:12.396Z,25.74
2022-10-27T08:17:39.934Z,25.72
2022-10-27T08:20:10.295Z,25.59
2022-10-27T08:22:37.310Z,25.57
2022-10-27T08:25:07.465Z,25.53
2022-10-27T08:27:37.046Z,25.67
2022-10-27T08:30:04.422Z,25.00
2022-10-27T08:32:31.390Z,24.56
2022-10-27T08:34:58.357Z,24.45
2022-10-27T08:37:25.305Z,24.36
2022-10-27T08:39:52.211Z,24.36
2022-10-27T08:42:42.138Z,24.32
2022-10-27T08:45:12.111Z,24.45
2022-10-27T08:47:39.170Z,24.07
2022-10-27T08:50:20.023Z,24.00
2022-10-27T08:52:55.155Z,23.87
2022-10-27T08:55:34.436Z,23.75
2022-10-27T08:58:06.966Z,23.71
2022-10-27T09:00:40.945Z,23.47
2022-10-27T09:03:07.914Z,23.49
2022-10-27T09:05:40.644Z,23.47
2022-10-27T09:08:23.564Z,23.43
2022-10-27T09:10:58.996Z,23.42
2022-10-27T09:13:58.570Z,23.17
2022-10-27T09:16:34.539Z,23.65
2022-10-27T09:19:02.919Z,23.60
2022-10-27T09:21:29.948Z,23.83
2022-10-27T09:24:04.169Z,23.79
2022-10-27T09:26:32.171Z,23.87
2022-10-27T09:29:01.483Z,23.92
2022-10-27T09:31:31.685Z,24.02
2022-10-27T09:34:03.763Z,24.05
2022-10-27T09:36:30.807Z,24.17
2022-10-27T09:38:57.805Z,24.23
2022-10-27T09:41:24.847Z,24.27
2022-10-27T09:43:56.250Z,24.35
2022-10-27T09:46:30.082Z,24.37
2022-10-27T09:49:05.625Z,24.37
2022-10-27T09:51:40.538Z,24.33
2022-10-27T09:54:07.530Z,24.33
2022-10-27T09:56:36.286Z,24.29
2022-10-27T09:59:04.836Z,24.46
2022-10-27T10:01:43.889Z,24.42
2022-10-27T10:04:37.268Z,24.62
2022-10-27T10:07:05.958Z,24.64
2022-10-27T10:09:34.255Z,24.71
2022-10-27T10:12:23.390Z,24.78
2022-10-27T10:15:11.503Z,24.86
2022-10-27T10:17:40.123Z,24.87
2022-10-27T10:20:37.168Z,24.88
2022-10-27T10:23:07.674Z,24.83
2022-10-27T10:25:34.727Z,24.84
2022-10-27T10:28:05.334Z,24.92
2022-10-27T10:30:36.773Z,24.91
2022-10-27T10:33:05.056Z,24.96
2022-10-27T10:35:44.064Z,24.85
2022-10-27T10:38:31.141Z,25.02
2022-10-27T10:41:13.875Z,25.07
2022-10-27T10:43:40.930Z,25.08
2022-10-27T10:46:23.038Z,24.93
2022-10-27T10:48:54.338Z,25.24
2022-10-27T10:51:31.420Z,25.26
2022-10-27T10:54:04.661Z,25.24
2022-10-27T10:56:33.651Z,25.14
2022-10-27T10:59:13.478Z,25.27
2022-10-27T11:01:56.955Z,25.28
2022-10-27T11:04:28.959Z,25.15
2022-10-27T11:07:00.772Z,25.47
2022-10-27T11:09:30.834Z,25.37
2022-10-27T11:11:57.908Z,25.56
2022-10-27T11:14:24.955Z,25.59
2022-10-27T11:16:53.497Z,25.50
2022-10-27T11:19:21.856Z,25.61
2022-10-27T11:21:58.646Z,25.65
2022-10-27T11:24:55.960Z,25.68
2022-10-27T11:27:29.530Z,25.71
2022-10-27T11:32:45.463Z,25.79
2022-10-27T11:35:12.654Z,25.85
2022-10-27T11:37:54.386Z,25.80
2022-10-27T11:40:37.372Z,25.79
2022-10-27T11:43:08.059Z,25.81
2022-10-27T11:45:43.948Z,25.94
2022-10-27T11:48:14.147Z,25.98
2022-10-27T11:50:54.273Z,26.02
2022-10-27T11:53:21.477Z,26.02
2022-10-27T11:56:10.519Z,26.09
2022-10-27T11:58:52.421Z,26.16
2022-10-27T12:01:52.656Z,26.22
2022-10-27T12:04:30.236Z,26.21
2022-10-27T12:07:28.824Z,26.22
2022-10-27T12:10:18.189Z,26.30
2022-10-27T12:12:46.874Z,26.31
2022-10-27T12:15:31.961Z,26.36
2022-10-27T12:18:10.143Z,26.37
2022-10-27T12:20:42.834Z,26.40
2022-10-27T12:23:12.776Z,26.47
2022-10-27T12:26:07.996Z,26.51
2022-10-27T12:28:34.904Z,26.51
2022-10-27T12:31:02.280Z,26.38
2022-10-27T12:33:36.905Z,26.13
2022-10-27T12:36:26.914Z,26.07
2022-10-27T12:39:03.100Z,26.17
2022-10-27T12:41:35.961Z,25.91
2022-10-27T12:44:28.129Z,25.64
2022-10-27T12:47:10.651Z,25.43
2022-10-27T12:49:40.784Z,25.50
2022-10-27T12:52:21.706Z,25.45
2022-10-27T12:54:54.737Z,25.42
2022-10-27T12:57:42.780Z,25.39
2022-10-27T13:00:19.164Z,25.32
2022-10-27T13:03:13.144Z,25.34
2022-10-27T13:05:40.055Z,25.31
2022-10-27T13:11:24.602Z,25.29
2022-10-27T13:13:54.288Z,25.29
2022-10-27T13:16:39.497Z,25.35
2022-10-27T13:19:30.931Z,25.37
2022-10-27T13:22:14.224Z,25.21
2022-10-27T13:25:01.745Z,25.31
2022-10-27T13:27:46.636Z,25.33
2022-10-27T13:30:19.201Z,25.26
2022-10-27T13:32:49.044Z,25.38
2022-10-27T13:35:15.905Z,25.46
2022-10-27T13:38:08.819Z,25.45
2022-10-27T13:40:39.335Z,25.43
2022-10-27T13:43:24.658Z,25.43
2022-10-27T13:45:55.196Z,25.37
2022-10-27T13:48:22.172Z,25.46
2022-10-27T13:50:56.238Z,25.60
2022-10-27T13:53:26.317Z,25.72
2022-10-27T13:56:13.559Z,25.79
2022-10-27T13:59:00.243Z,25.80
2022-10-27T14:01:48.126Z,25.91
2022-10-27T14:04:27.281Z,25.98
2022-10-27T14:07:04.850Z,26.03
2022-10-27T14:09:47.731Z,26.07
2022-10-27T14:12:32.671Z,26.13
2022-10-27T14:15:03.708Z,26.09
2022-10-27T14:17:30.556Z,26.17
2022-10-27T14:20:02.049Z,26.15
2022-10-27T14:22:43.247Z,26.28
2022-10-27T14:25:26.039Z,26.26
2022-10-27T14:28:21.753Z,26.23
2022-10-27T14:31:11.210Z,26.24
2022-10-27T14:33:38.077Z,26.24
2022-10-27T14:36:29.306Z,26.29
2022-10-27T14:39:04.858Z,26.28
2022-10-27T14:41:32.981Z,26.28
2022-10-27T14:44:01.205Z,26.30
2022-10-27T14:46:29.461Z,26.26
2022-10-27T14:49:16.346Z,26.33
2022-10-27T14:51:43.208Z,26.21
2022-10-27T14:54:13.293Z,26.32
2022-10-27T14:56:40.289Z,26.28
2022-10-27T14:59:18.625Z,26.20
2022-10-27T15:01:45.586Z,26.25
2022-10-27T15:04:25.798Z,26.25
2022-10-27T15:06:54.551Z,26.24
2022-10-27T15:09:30.219Z,26.20
2022-10-27T15:11:57.672Z,26.18
2022-10-27T15:14:24.479Z,26.16
2022-10-27T15:16:51.317Z,26.12
2022-10-27T15:19:18.533Z,26.11
2022-10-27T15:21:45.983Z,26.08
2022-10-27T15:24:16.334Z,26.05
2022-10-27T15:26:43.172Z,26.03
2022-10-27T15:29:14.884Z,26.00
2022-10-27T15:31:42.758Z,25.97
2022-10-27T15:34:33.154Z,25.87
2022-10-27T15:37:26.504Z,25.91
2022-10-27T15:39:53.829Z,25.85
2022-10-27T15:42:22.376Z,25.80
2022-10-27T15:44:49.385Z,25.78
2022-10-27T15:47:37.893Z,25.73
2022-10-27T15:50:05.229Z,25.67
2022-10-27T15:52:32.069Z,25.63
2022-10-27T15:55:01.980Z,25.56
2022-10-27T15:57:38.767Z,25.53
2022-10-27T16:00:28.464Z,25.47
2022-10-27T16:02:58.186Z,25.40
2022-10-27T16:05:31.207Z,25.35
2022-10-27T16:07:58.005Z,25.27
2022-10-27T16:10:25.053Z,25.21
2022-10-27T16:12:51.915Z,25.17
2022-10-27T16:15:25.287Z,25.12
2022-10-27T16:17:56.420Z,25.05
2022-10-27T16:20:34.058Z,24.97
2022-10-27T16:23:01.222Z,24.89
2022-10-27T16:25:29.228Z,24.85
2022-10-27T16:27:56.051Z,24.79
2022-10-27T16:30:23.089Z,24.74
2022-10-27T16:33:00.928Z,24.70
2022-10-27T16:35:27.838Z,24.64
2022-10-27T16:37:56.101Z,24.60
2022-10-27T16:40:22.956Z,24.56
2022-10-27T16:42:51.672Z,24.49
2022-10-27T16:45:22.501Z,24.47
2022-10-27T16:47:50.084Z,24.42
2022-10-27T16:50:17.482Z,24.35
2022-10-27T16:52:44.458Z,24.30
2022-10-27T16:55:12.281Z,24.25
2022-10-27T16:57:39.813Z,24.18
2022-10-27T17:00:07.247Z,24.15
2022-10-27T17:02:34.260Z,24.08
2022-10-27T17:05:01.110Z,24.04
2022-10-27T17:07:27.931Z,23.97
2022-10-27T17:09:55.344Z,23.92
2022-10-27T17:12:22.201Z,23.86
2022-10-27T17:14:50.812Z,23.84
2022-10-27T17:17:18.539Z,23.77
2022-10-27T17:19:45.414Z,23.70
2022-10-27T17:22:12.233Z,23.64
2022-10-27T17:24:39.073Z,23.58
2022-10-27T17:27:06.096Z,23.52
2022-10-27T17:29:32.902Z,23.46
2022-10-27T17:31:59.720Z,23.41
2022-10-27T17:34:26.840Z,23.35
2022-10-27T17:36:53.666Z,23.29
2022-10-27T17:39:20.505Z,23.26
2022-10-27T17:41:47.364Z,23.21
2022-10-27T17:44:14.217Z,23.15
2022-10-27T17:46:41.043Z,23.12
2022-10-27T17:49:08.905Z,23.07
2022-10-27T17:51:35.792Z,22.95
2022-10-27T17:54:04.148Z,22.86
2022-10-27T17:56:32.446Z,22.81
2022-10-27T17:58:59.425Z,22.51
2022-10-27T18:01:30.122Z,22.69
2022-10-27T18:04:01.742Z,22.63
2022-10-27T18:06:28.915Z,22.49
2022-10-27T18:08:56.462Z,22.53
2022-10-27T18:11:24.713Z,22.50
2022-10-27T18:13:52.407Z,22.44
2022-10-27T18:16:24.214Z,22.38
2022-10-27T18:18:51.657Z,22.32
2022-10-27T18:21:18.659Z,22.28
2022-10-27T18:23:50.079Z,22.22
2022-10-27T18:26:17.015Z,22.03
2022-10-27T18:28:47.008Z,22.10
2022-10-27T18:31:14.384Z,22.04
2022-10-27T18:33:47.316Z,21.97
2022-10-27T18:36:17.661Z,21.91
2022-10-27T18:38:44.593Z,21.86
2022-10-27T18:41:13.194Z,21.80
2022-10-27T18:43:40.043Z,21.69
2022-10-27T18:46:09.511Z,21.75
2022-10-27T18:48:37.501Z,21.72
2022-10-27T18:51:07.550Z,21.68
2022-10-27T18:53:37.389Z,21.64
2022-10-27T18:56:05.944Z,21.47
2022-10-27T18:58:33.049Z,21.55
2022-10-27T19:01:14.988Z,21.51
2022-10-27T19:03:41.953Z,21.43
2022-10-27T19:06:09.816Z,21.41
2022-10-27T19:08:36.826Z,21.33
2022-10-27T19:11:13.887Z,21.30
2022-10-27T19:13:41.021Z,21.24
2022-10-27T19:16:12.527Z,21.21
2022-10-27T19:18:39.346Z,21.14
2022-10-27T19:23:39.473Z,21.07
2022-10-27T19:26:10.871Z,21.03
2022-10-27T19:28:38.829Z,20.96
2022-10-27T19:31:05.980Z,20.91
2022-10-27T19:33:32.856Z,20.87
2022-10-27T19:36:23.569Z,20.84
2022-10-27T19:38:51.119Z,20.77
2022-10-27T19:41:19.979Z,20.72
2022-10-27T19:43:48.848Z,20.66
2022-10-27T19:46:17.827Z,20.63
2022-10-27T19:48:44.809Z,20.59
2022-10-27T19:51:19.237Z,20.56
2022-10-27T19:53:49.000Z,20.48
2022-10-27T19:56:16.286Z,20.43
2022-10-27T19:58:43.231Z,20.38
2022-10-27T20:01:17.844Z,20.37
2022-10-27T20:03:44.706Z,20.30
2022-10-27T20:06:11.659Z,20.16
2022-10-27T20:08:39.870Z,20.32
2022-10-27T20:11:10.956Z,20.31
2022-10-27T20:13:37.993Z,20.26
2022-10-27T20:16:05.844Z,20.22
2022-10-27T20:18:33.374Z,20.10
2022-10-27T20:21:00.362Z,20.00
2022-10-27T20:23:28.845Z,20.11
2022-10-27T20:26:16.978Z,20.03
2022-10-27T20:28:46.130Z,19.99
2022-10-27T20:31:13.849Z,19.95
2022-10-27T20:33:40.805Z,19.91
2022-10-27T20:36:09.368Z,19.87
2022-10-27T20:38:36.392Z,19.83
2022-10-27T20:41:07.238Z,19.78
2022-10-27T20:43:34.633Z,19.72
2022-10-27T20:46:01.685Z,19.68
2022-10-27T20:48:28.603Z,19.65
2022-10-27T20:50:56.267Z,19.61
2022-10-27T20:53:23.253Z,19.55
2022-10-27T20:55:50.150Z,19.53
2022-10-27T20:58:17.041Z,19.45
2022-10-27T21:00:43.958Z,19.34
2022-10-27T21:03:10.920Z,19.43
2022-10-27T21:05:37.731Z,19.39
2022-10-27T21:08:04.753Z,19.36
2022-10-27T21:10:36.772Z,19.30
2022-10-27T21:13:03.612Z,19.29
2022-10-27T21:15:30.576Z,19.26
2022-10-27T21:17:57.407Z,19.23
2022-10-27T21:20:24.245Z,19.19
2022-10-27T21:22:54.499Z,19.15
2022-10-27T21:25:22.287Z,19.10
2022-10-27T21:27:55.888Z,19.06
2022-10-27T21:32:55.502Z,18.97
2022-10-27T21:35:23.211Z,18.95
2022-10-27T21:37:50.102Z,18.91
2022-10-27T21:40:17.996Z,18.86
2022-10-27T21:42:44.906Z,18.83
2022-10-27T21:45:12.473Z,18.79
2022-10-27T21:47:39.719Z,18.76
2022-10-27T21:50:09.900Z,18.70
2022-10-27T21:52:36.849Z,18.70
2022-10-27T21:55:05.328Z,18.65
2022-10-27T21:57:32.183Z,18.50
2022-10-27T21:59:59.000Z,18.60
2022-10-27T22:02:26.146Z,18.57
2022-10-27T22:04:53.060Z,18.54
2022-10-27T22:07:19.901Z,18.51
2022-10-27T22:09:46.791Z,18.50
2022-10-27T22:12:13.651Z,18.47
2022-10-27T22:14:40.479Z,18.44
2022-10-27T22:17:07.398Z,18.40
2022-10-27T22:19:34.236Z,18.36
2022-10-27T22:22:01.098Z,18.33
2022-10-27T22:24:27.961Z,18.28
2022-10-27T22:26:54.783Z,18.25
2022-10-27T22:29:21.626Z,18.22
2022-10-27T22:31:48.568Z,18.11
2022-10-27T22:34:15.438Z,18.16
2022-10-27T22:36:42.298Z,18.11
2022-10-27T22:39:11.670Z,17.96
2022-10-27T22:41:38.519Z,18.05
2022-10-27T22:44:06.286Z,18.01
2022-10-27T22:46:33.387Z,17.96
2022-10-27T22:49:00.256Z,17.94
2022-10-27T22:51:27.441Z,17.90
2022-10-27T22:53:55.492Z,17.87
2022-10-27T22:56:24.293Z,17.83
2022-10-27T22:58:53.874Z,17.78
2022-10-27T23:01:22.788Z,17.76
2022-10-27T23:03:54.048Z,17.73
2022-10-27T23:06:21.536Z,17.71
2022-10-27T23:08:52.026Z,17.68
2022-10-27T23:11:18.839Z,17.65
2022-10-27T23:13:45.643Z,17.62
2022-10-27T23:16:12.485Z,17.60
2022-10-27T23:18:40.940Z,17.58
2022-10-27T23:21:08.828Z,17.55
2022-10-27T23:23:35.742Z,17.52
2022-10-27T23:26:02.633Z,17.47
2022-10-27T23:28:29.615Z,17.44
2022-10-27T23:30:56.684Z,17.40
2022-10-27T23:33:23.581Z,17.37
2022-10-27T23:35:57.699Z,17.34
2022-10-27T23:40:57.791Z,17.19
2022-10-27T23:43:26.742Z,17.02
2022-10-27T23:46:09.563Z,17.13
2022-10-27T23:48:36.870Z,17.05
2022-10-27T23:51:03.859Z,17.04
2022-10-27T23:53:30.895Z,17.08
2022-10-27T23:56:01.677Z,17.01
2022-10-27T23:58:32.431Z,17.01
